Aviation Digital Data Service (ADDS)

Output produced by METARs form (2335 UTC 18 August 2019)
found at http://www.aviationweather.gov/metar/data/
 
Forecast for: FYWH (J. G. STRIJDOM , NA)
Text: TAF FYWH 182200Z 1900/2000 06003KT CAVOK
Forecast period: 0000 UTC 19 August 2019 to 0000 UTC 20 August 2019
Forecast type: FROM: standard forecast or significant change
Winds: from the ENE (60 degrees) at 3 MPH (3 knots; 1.5 m/s)
Visibility: 6 or more miles 10+ km)
Ceiling: unknown
Clouds: missing
Weather: NSW  (no significant weather)